Stations météo

réclame
Mon MeteoGroup
Petisträsk, Suède (2282): Température de l'air & dewpoint: 18.01.2018 10:00:00 - 24.01.2018 10:00:00 (CET)Petisträsk, Suède (2282): Vitesse du vent & gusts: 18.01.2018 10:00:00 - 24.01.2018 10:00:00 (CET)Petisträsk, Suède (2282): Direction du vent: 18.01.2018 10:00:00 - 24.01.2018 10:00:00 (CET)Petisträsk, Suède (2282): visibility: 18.01.2018 10:00:00 - 24.01.2018 10:00:00 (CET)Petisträsk, Suède (2282): Quantités de précipitations: 18.01.2018 10:00:00 - 24.01.2018 10:00:00 (CET)
Date & Time tt [°C] td [°C] ff [km/h] ff [knt] fx [km/h] fx [knt] dd vv [km] rr [mm]
24.01.2018 10:00:00 -3,0 - 6 3 10 6 E 1,7 1,2
24.01.2018 09:00:00 -3,3 -3,3 5 3 17 9 ESE 1,0 1,0
24.01.2018 08:00:00 -5,0 -5,0 8 4 16 9 E 3,3 0,6
24.01.2018 07:00:00 -5,3 -5,4 10 5 18 10 E 1,0 1,5
24.01.2018 06:00:00 -6,1 -6,4 11 6 21 12 E 0,8 1,3
24.01.2018 05:00:00 -7,1 -7,5 9 5 19 10 E 1,3 1,1
24.01.2018 04:00:00 -7,3 -7,7 9 5 21 11 E 1,4 1,0
24.01.2018 03:00:00 -7,2 -7,6 11 6 24 13 E 6 0,1
24.01.2018 02:00:00 -8,1 -8,6 12 7 22 12 E 2,0 0,4
24.01.2018 01:00:00 -9,0 -9,7 10 5 21 12 ESE 2,4 0,4
24.01.2018 00:00:00 -8,8 -9,5 9 5 18 10 E 9 0,0
23.01.2018 23:00:00 -8,5 -9,2 8 4 16 9 ESE 7 0,1
23.01.2018 22:00:00 -8,5 -9,0 7 4 13 7 E 15 0,0
23.01.2018 21:00:00 -9,2 -9,9 5 3 9 5 E - 0,0
23.01.2018 20:00:00 -10,0 -10,6 3 2 6 4 E 1,5 0,0
23.01.2018 19:00:00 -10,4 -11,0 2 1 6 3 ESE - 0,0
23.01.2018 18:00:00 -10,8 -11,6 3 1 10 5 S 3,6 0,0
23.01.2018 17:00:00 -11,0 -11,8 0 0 8 4 N 2,7 0,0
23.01.2018 16:00:00 -11,6 -12,2 0 0 8 4 N 1,5 0,0
23.01.2018 15:00:00 -13,0 -14,2 2 1 4 2 ENE 6 0,0
23.01.2018 14:00:00 -13,2 -14,6 0 0 3 2 N 11 0,0
23.01.2018 13:00:00 -14,0 -15,4 0 0 5 3 N 3,1 0,1
23.01.2018 12:00:00 -15,1 -16,6 0 0 3 2 N 5 0,0
23.01.2018 11:00:00 -16,3 -18,0 0 0 2 1 N 2,5 0,1
23.01.2018 10:00:00 -17,2 -18,8 0 0 1 1 N 2,8 0,0
23.01.2018 09:00:00 -17,9 -19,5 0 0 6 3 N 1,9 0,0
23.01.2018 08:00:00 -18,9 -20,7 2 1 4 2 SE 3,4 0,0
23.01.2018 07:00:00 -20,8 -22,8 0 0 3 1 N 8 0,0
23.01.2018 06:00:00 -22,2 -24,3 0 0 3 2 N 6 0,0
23.01.2018 05:00:00 -23,7 -26,0 0 0 3 1 N 10 0,0
23.01.2018 04:00:00 -24,0 -26,3 0 0 4 2 N 6 0,0
23.01.2018 03:00:00 -25,7 -28,1 0 0 3 2 N 9 0,0
23.01.2018 02:00:00 -27,9 -30,5 0 0 2 1 N 7 0,0
23.01.2018 01:00:00 -30,4 -33,2 0 0 1 1 N 15 0,0
23.01.2018 00:00:00 -31,1 -34,2 0 0 1 0 N 50 0,0
22.01.2018 23:00:00 -30,3 -33,4 0 0 1 1 N 8 0,3
22.01.2018 22:00:00 -30,3 -33,3 0 0 1 1 N 50 0,0
22.01.2018 21:00:00 -29,7 -32,8 0 0 2 1 N 50 0,0
22.01.2018 20:00:00 -28,7 -31,5 0 0 1 1 N 50 0,0
22.01.2018 19:00:00 -29,1 -32,1 0 0 2 1 N 50 0,0
22.01.2018 18:00:00 -27,9 -30,4 0 0 2 1 N 50 0,0
22.01.2018 17:00:00 -26,4 -29,1 0 0 3 1 N 50 0,0
22.01.2018 16:00:00 -23,7 -25,8 0 0 2 1 N 50 0,0
22.01.2018 15:00:00 -21,4 -23,5 0 0 3 1 N 41 0,0
22.01.2018 14:00:00 -18,0 -19,6 0 0 5 3 N 50 0,0
22.01.2018 13:00:00 -15,8 -17,5 0 0 5 3 N 50 0,0
22.01.2018 12:00:00 -16,7 -19,0 0 0 6 3 N 2,7 0,0
22.01.2018 11:00:00 -15,8 -17,7 0 0 2 1 N 9 0,0
22.01.2018 10:00:00 -14,1 -15,8 0 0 4 2 N 15 0,0
22.01.2018 09:00:00 -13,8 -15,4 3 2 8 4 NNE 17 0,0
22.01.2018 08:00:00 -13,4 -14,8 0 0 8 5 N 3,3 0,0
22.01.2018 07:00:00 -13,2 -14,6 3 2 8 5 NE 9 0,1
22.01.2018 06:00:00 -12,9 -14,3 2 1 8 4 NNE 8 0,0
22.01.2018 05:00:00 -12,6 -14,0 3 2 9 5 NNE 4,7 0,0
22.01.2018 04:00:00 -12,2 -13,5 0 0 7 4 N 6 0,0
22.01.2018 03:00:00 -11,8 -13,1 2 1 6 3 NE 8 0,0
22.01.2018 02:00:00 -11,5 -12,8 0 0 7 4 N 8 0,1
22.01.2018 01:00:00 -11,3 -12,5 0 0 6 3 N 9 0,0
22.01.2018 00:00:00 -11,2 -12,4 2 1 8 4 N 9 0,0
21.01.2018 23:00:00 -11,1 -12,1 2 1 7 4 NNE 11 0,0
21.01.2018 22:00:00 -11,1 -12,1 0 0 4 2 N 11 0,0
21.01.2018 21:00:00 -11,1 -12,1 3 1 8 4 ENE 9 0,0
21.01.2018 20:00:00 -11,1 -12,0 0 0 3 1 N 3,9 0,1
21.01.2018 19:00:00 -11,2 -12,2 0 0 3 1 N 6 0,0
21.01.2018 18:00:00 -11,1 -12,1 0 0 2 1 N 3,4 0,0
21.01.2018 17:00:00 -11,1 -12,1 0 0 4 2 N 6 0,0
21.01.2018 16:00:00 -11,1 -12,1 0 0 1 0 N 5 0,0
21.01.2018 15:00:00 -11,2 -12,2 0 0 3 2 N 8 0,0
21.01.2018 14:00:00 -10,9 -12,1 0 0 5 3 N 8 0,0
21.01.2018 13:00:00 -11,2 -12,2 3 1 5 3 E 12 0,0
21.01.2018 12:00:00 -11,6 -13,0 0 0 4 2 N 7 0,1
21.01.2018 11:00:00 -12,1 -13,1 0 0 3 2 N 4,3 0,0
21.01.2018 10:00:00 -12,3 -13,5 0 0 2 1 N 18 0,0
21.01.2018 09:00:00 -11,4 -12,4 0 0 2 1 N 7 0,1
21.01.2018 08:00:00 -11,6 -12,5 0 0 1 1 N 3,6 0,0
21.01.2018 07:00:00 -11,7 -12,6 0 0 1 1 N 14 0,1
21.01.2018 06:00:00 -10,9 -11,9 0 0 4 2 N 3,2 0,2
21.01.2018 05:00:00 -10,6 -11,5 0 0 5 3 N 8 0,1
21.01.2018 04:00:00 -10,2 -11,1 2 1 5 3 ENE 15 0,1
21.01.2018 03:00:00 -10,1 -10,9 0 0 3 2 N 17 0,0
21.01.2018 02:00:00 -10,4 -11,2 0 0 3 2 N 6 0,1
21.01.2018 01:00:00 -10,5 -11,4 0 0 4 2 N 6 0,0
21.01.2018 00:00:00 -9,9 -10,7 0 0 4 2 N 5 0,3
20.01.2018 23:00:00 -9,7 -10,5 2 1 4 2 E 4,4 0,4
20.01.2018 22:00:00 -9,3 -10,1 0 0 4 2 N 2,8 0,0
20.01.2018 21:00:00 -8,9 -9,6 3 2 6 4 E 10 0,0
20.01.2018 20:00:00 -8,8 -9,5 4 2 6 4 E 11 0,1
20.01.2018 19:00:00 -9,2 -9,9 3 1 9 5 E 4,5 0,1
20.01.2018 18:00:00 -8,3 -9,0 4 2 9 5 E 3,5 0,4
20.01.2018 17:00:00 -8,3 -8,8 5 3 11 6 E 2,2 0,5
20.01.2018 16:00:00 -8,3 -8,8 5 3 11 6 E 3,0 0,0
20.01.2018 15:00:00 -8,4 -8,9 6 3 10 5 E - 0,0
20.01.2018 14:00:00 -8,7 -9,5 5 3 12 6 E 23 0,0
20.01.2018 13:00:00 -8,8 -9,6 5 3 10 5 E 18 0,3
20.01.2018 12:00:00 -9,3 -10,1 5 3 10 5 E 2,4 0,6
20.01.2018 11:00:00 -9,7 -10,5 4 2 11 6 E 2,2 0,3
20.01.2018 10:00:00 -10,2 -11,0 4 2 15 8 E 6 0,0
20.01.2018 09:00:00 -10,3 -11,1 7 4 14 8 E 11 0,1
20.01.2018 08:00:00 -10,6 -11,4 5 3 12 7 E 6 0,4
20.01.2018 07:00:00 -10,7 -11,5 7 4 14 7 E 5 0,2
20.01.2018 06:00:00 -10,6 -11,4 6 3 14 7 E 7 0,1
20.01.2018 05:00:00 -10,5 -11,3 6 4 13 7 E 10 0,2
20.01.2018 04:00:00 -11,0 -11,9 3 2 11 6 E 3,3 0,2
20.01.2018 03:00:00 -11,8 -12,7 3 2 6 4 E 3,6 0,0
20.01.2018 02:00:00 -13,3 -14,3 3 2 5 3 E 3,5 0,0
20.01.2018 01:00:00 -14,4 -15,7 0 0 4 2 N 2,9 0,0
20.01.2018 00:00:00 -15,2 -16,5 0 0 5 3 N 3,7 0,0
19.01.2018 23:00:00 -16,4 -17,8 0 0 3 1 N 2,2 0,0
19.01.2018 22:00:00 -17,3 -18,8 0 0 4 2 N 1,5 0,0
19.01.2018 21:00:00 -18,2 -19,8 0 0 3 1 N 4,8 0,0
19.01.2018 20:00:00 -17,1 -18,7 0 0 4 2 N 50 0,0
19.01.2018 19:00:00 -15,9 -17,3 2 1 4 2 E 10 0,1
19.01.2018 18:00:00 -15,9 -17,3 2 1 3 1 W 1,4 0,0
19.01.2018 17:00:00 -17,3 -18,8 0 0 2 1 N 1,8 0,0
19.01.2018 16:00:00 -19,9 -21,8 0 0 2 1 N 5 0,1
19.01.2018 15:00:00 -18,4 -19,8 0 0 3 2 N 26 0,0
19.01.2018 14:00:00 -16,3 -17,7 0 0 6 3 N 26 0,0
19.01.2018 13:00:00 -13,2 -14,2 0 0 6 3 N 16 0,0
19.01.2018 12:00:00 -12,1 -13,5 0 0 8 4 N 27 0,0
19.01.2018 11:00:00 -11,0 -12,2 4 2 8 4 NE 18 0,0
19.01.2018 10:00:00 -11,2 -12,0 2 1 7 4 NE 10 0,1
19.01.2018 09:00:00 -11,4 -12,4 0 0 9 5 N 8 0,0
19.01.2018 08:00:00 -10,6 -11,6 2 1 9 5 N - 0,0
19.01.2018 07:00:00 -10,3 -11,2 4 2 10 5 NNE 6 0,1
19.01.2018 06:00:00 -10,1 -10,9 2 1 8 4 NNE 4,6 0,1
19.01.2018 05:00:00 -10,9 -11,8 0 0 4 2 N 2,6 0,2
19.01.2018 04:00:00 -11,1 -12,0 0 0 3 2 N 1,5 0,1
19.01.2018 03:00:00 -10,5 -11,4 0 0 3 2 N 1,3 0,2
19.01.2018 02:00:00 -11,0 -11,8 0 0 3 2 N 1,3 0,2
19.01.2018 01:00:00 -11,2 -12,1 0 0 3 2 N 1,6 0,1
19.01.2018 00:00:00 -10,8 -11,7 2 1 5 3 WNW 8 0,0
18.01.2018 23:00:00 -9,8 -10,7 0 0 10 5 N 3,9 0,1
18.01.2018 22:00:00 -9,8 -10,9 2 1 9 5 NNE 5 0,1
18.01.2018 21:00:00 -9,8 -10,9 3 2 11 6 NE 6 0,2
18.01.2018 20:00:00 -9,7 -10,6 3 2 11 6 NNE 3,6 0,0
18.01.2018 19:00:00 -9,5 -10,4 6 3 14 8 NE 3,1 0,2
18.01.2018 18:00:00 -9,6 -10,4 6 4 13 7 NE 4,9 0,1
18.01.2018 17:00:00 -9,8 -10,7 6 3 16 9 NE 3,8 0,1
18.01.2018 16:00:00 -10,0 -11,1 5 3 16 9 NE 3,4 0,1
18.01.2018 15:00:00 -9,8 -10,7 6 3 16 8 NE 3,5 0,2
18.01.2018 14:00:00 -9,6 -10,7 5 3 14 7 NE 3,3 0,1
18.01.2018 13:00:00 -9,4 -10,3 4 2 14 8 NE 2,1 0,1
18.01.2018 12:00:00 -9,1 -10,0 5 3 14 7 NNE 2,1 0,3
18.01.2018 11:00:00 -9,3 -10,1 4 2 12 6 NE 2,4 0,1
18.01.2018 10:00:00 -10,1 -10,9 4 2 13 7 NE 3,9 0,1

tt = Température de l'air
td = dewpoint
ff = Vitesse du vent
fx = gusts
dd = Direction du vent
vv = visibility
rr = Quantités de précipitations

stations d'obs. à proximité